createdAt,value
2018-06-15T00:00:16.976Z,28.50
2018-06-15T00:02:51.294Z,25.27
2018-06-15T00:05:20.057Z,27.40
2018-06-15T00:07:48.921Z,24.57
2018-06-15T00:10:17.680Z,24.80
2018-06-15T00:12:46.353Z,22.03
2018-06-15T00:15:15.110Z,26.20
2018-06-15T00:17:43.882Z,28.40
2018-06-15T00:20:12.456Z,23.43
2018-06-15T00:22:40.964Z,26.27
2018-06-15T00:25:09.637Z,22.33
2018-06-15T00:27:38.232Z,26.17
2018-06-15T00:30:07.166Z,22.03
2018-06-15T00:32:35.934Z,27.67
2018-06-15T00:38:01.906Z,28.27
2018-06-15T00:40:30.669Z,27.67
2018-06-15T00:42:59.450Z,21.40
2018-06-15T00:45:28.205Z,24.83
2018-06-15T00:47:56.978Z,23.33
2018-06-15T00:50:25.741Z,25.00
2018-06-15T00:52:54.521Z,25.40
2018-06-15T00:55:23.446Z,20.43
2018-06-15T00:57:52.225Z,27.50
2018-06-15T01:00:20.998Z,26.20
2018-06-15T01:02:49.782Z,30.23
2018-06-15T01:05:18.574Z,22.30
2018-06-15T01:07:47.362Z,20.00
2018-06-15T01:10:16.133Z,25.00
2018-06-15T01:12:44.914Z,24.30
2018-06-15T01:15:13.702Z,30.50
2018-06-15T01:17:42.565Z,21.43
2018-06-15T01:20:11.333Z,24.30
2018-06-15T01:22:40.904Z,31.30
2018-06-15T01:25:09.605Z,30.47
2018-06-15T01:27:38.636Z,25.80
2018-06-15T01:30:07.376Z,19.83
2018-06-15T01:32:36.045Z,20.20
2018-06-15T01:35:04.812Z,19.97
2018-06-15T01:37:33.689Z,23.50
2018-06-15T01:40:02.461Z,26.33
2018-06-15T01:42:31.225Z,22.23
2018-06-15T01:45:00.150Z,27.30
2018-06-15T01:47:28.928Z,25.40
2018-06-15T01:49:57.410Z,23.23
2018-06-15T01:52:25.892Z,22.73
2018-06-15T01:54:54.590Z,24.33
2018-06-15T01:57:23.353Z,21.53
2018-06-15T01:59:52.277Z,22.23
2018-06-15T02:02:21.033Z,29.30
2018-06-15T02:04:49.811Z,23.47
2018-06-15T02:07:18.569Z,27.07
2018-06-15T02:09:47.555Z,25.53
2018-06-15T02:12:16.303Z,26.93
2018-06-15T02:14:45.169Z,22.17
2018-06-15T02:17:13.829Z,22.13
2018-06-15T02:19:42.689Z,19.97
2018-06-15T02:22:11.633Z,23.30
2018-06-15T02:24:40.441Z,22.77
2018-06-15T02:27:09.226Z,25.90
2018-06-15T02:29:38.006Z,23.10
2018-06-15T02:32:06.775Z,26.43
2018-06-15T02:34:35.702Z,23.47
2018-06-15T02:37:04.466Z,21.97
2018-06-15T02:39:33.242Z,27.10
2018-06-15T02:42:02.050Z,24.53
2018-06-15T02:44:30.817Z,19.90
2018-06-15T02:46:59.597Z,21.07
2018-06-15T02:49:28.398Z,20.60
2018-06-15T02:51:57.192Z,22.57
2018-06-15T02:54:25.965Z,15.60
2018-06-15T02:56:54.746Z,18.30
2018-06-15T02:59:23.517Z,25.60
2018-06-15T03:01:52.274Z,27.50
2018-06-15T03:04:21.037Z,25.83
2018-06-15T03:06:49.801Z,20.50
2018-06-15T03:09:18.566Z,18.03
2018-06-15T03:11:47.337Z,19.77
2018-06-15T03:14:15.889Z,20.83
2018-06-15T03:16:44.568Z,22.77
2018-06-15T03:19:13.353Z,21.87
2018-06-15T03:21:42.113Z,18.33
2018-06-15T03:24:10.875Z,25.43
2018-06-15T03:26:39.648Z,21.23
2018-06-15T03:29:08.445Z,21.27
2018-06-15T03:31:36.989Z,25.43
2018-06-15T03:34:05.705Z,27.27
2018-06-15T03:36:34.465Z,23.60
2018-06-15T03:39:05.899Z,22.97
2018-06-15T03:41:34.637Z,21.03
2018-06-15T03:44:03.289Z,23.13
2018-06-15T03:46:32.059Z,23.80
2018-06-15T03:49:01.114Z,19.23
2018-06-15T03:51:29.887Z,25.43
2018-06-15T03:53:58.679Z,22.43
2018-06-15T03:56:27.434Z,26.77
2018-06-15T03:58:56.273Z,19.37
2018-06-15T04:01:25.031Z,27.23
2018-06-15T04:03:54.337Z,21.13
2018-06-15T04:06:23.106Z,19.60
2018-06-15T04:08:51.865Z,22.57
2018-06-15T04:11:20.625Z,22.50
2018-06-15T04:13:49.389Z,18.53
2018-06-15T04:16:18.150Z,16.30
2018-06-15T04:18:46.930Z,20.90
2018-06-15T04:21:15.705Z,20.57
2018-06-15T04:23:44.461Z,27.33
2018-06-15T04:26:13.240Z,21.93
2018-06-15T04:28:41.798Z,22.83
2018-06-15T04:31:10.498Z,27.70
2018-06-15T04:33:39.277Z,23.17
2018-06-15T04:36:08.173Z,19.53
2018-06-15T04:38:36.990Z,20.40
2018-06-15T04:41:06.130Z,31.07
2018-06-15T04:43:35.053Z,21.87
2018-06-15T04:46:03.821Z,20.10
2018-06-15T04:48:32.678Z,26.93
2018-06-15T04:51:01.453Z,14.87
2018-06-15T04:53:30.214Z,20.13
2018-06-15T04:55:59.015Z,25.27
2018-06-15T04:58:27.853Z,23.50
2018-06-15T05:00:56.781Z,23.93
2018-06-15T05:03:25.618Z,25.17
2018-06-15T05:05:54.406Z,20.23
2018-06-15T05:08:23.332Z,21.03
2018-06-15T05:10:52.097Z,18.20
2018-06-15T05:13:20.856Z,22.80
2018-06-15T05:15:49.630Z,18.50
2018-06-15T05:18:18.465Z,19.50
2018-06-15T05:20:47.213Z,21.20
2018-06-15T05:23:16.126Z,18.60
2018-06-15T05:25:44.745Z,18.13
2018-06-15T05:28:13.357Z,20.20
2018-06-15T05:30:42.092Z,21.00
2018-06-15T05:33:10.738Z,19.57
2018-06-15T05:35:39.637Z,20.67
2018-06-15T05:38:08.396Z,18.57
2018-06-15T05:40:37.163Z,16.97
2018-06-15T05:43:05.949Z,16.33
2018-06-15T05:45:34.722Z,16.87
2018-06-15T05:48:03.481Z,18.00
2018-06-15T05:50:32.310Z,20.90
2018-06-15T05:53:01.054Z,17.07
2018-06-15T05:55:29.826Z,14.90
2018-06-15T05:57:58.424Z,18.03
2018-06-15T06:00:27.093Z,20.43
2018-06-15T06:02:56.037Z,15.17
2018-06-15T06:05:24.822Z,16.00
2018-06-15T06:07:53.573Z,13.00
2018-06-15T06:10:23.023Z,20.93
2018-06-15T06:12:51.847Z,13.90
2018-06-15T06:15:20.804Z,15.33
2018-06-15T06:17:49.527Z,18.37
2018-06-15T06:20:18.325Z,20.57
2018-06-15T06:22:46.908Z,16.80
2018-06-15T06:25:15.597Z,17.57
2018-06-15T06:27:44.154Z,16.13
2018-06-15T06:30:12.835Z,13.87
2018-06-15T06:32:41.692Z,17.13
2018-06-15T06:35:10.505Z,18.17
2018-06-15T06:37:39.478Z,16.83
2018-06-15T06:40:08.254Z,20.57
2018-06-15T06:42:37.034Z,14.47
2018-06-15T06:45:05.910Z,16.73
2018-06-15T06:47:34.685Z,18.60
2018-06-15T06:50:03.228Z,17.70
2018-06-15T06:52:32.070Z,15.77
2018-06-15T06:55:01.454Z,12.80
2018-06-15T06:57:30.246Z,12.63
2018-06-15T06:59:58.848Z,11.80
2018-06-15T07:02:27.745Z,12.17
2018-06-15T07:04:56.506Z,18.57
2018-06-15T07:07:25.289Z,13.50
2018-06-15T07:09:54.057Z,14.60
2018-06-15T07:12:22.846Z,13.57
2018-06-15T07:14:54.593Z,15.20
2018-06-15T07:17:23.573Z,15.17
2018-06-15T07:19:52.407Z,15.37
2018-06-15T07:22:21.422Z,14.10
2018-06-15T07:24:50.331Z,14.40
2018-06-15T07:27:19.052Z,11.47
2018-06-15T07:29:47.762Z,14.47
2018-06-15T07:32:16.586Z,14.03
2018-06-15T07:34:45.377Z,13.67
2018-06-15T07:37:14.162Z,10.23
2018-06-15T07:39:42.922Z,8.63
2018-06-15T07:42:11.695Z,8.57
2018-06-15T07:44:40.454Z,8.40
2018-06-15T07:47:09.245Z,8.53
2018-06-15T07:49:38.082Z,7.30
2018-06-15T07:52:06.907Z,7.37
2018-06-15T07:54:35.653Z,7.70
2018-06-15T07:57:04.562Z,8.50
2018-06-15T07:59:33.088Z,6.10
2018-06-15T08:02:01.774Z,9.27
2018-06-15T08:04:30.635Z,9.90
2018-06-15T08:06:59.497Z,6.63
2018-06-15T08:09:28.263Z,7.03
2018-06-15T08:11:57.022Z,9.40
2018-06-15T08:14:25.783Z,10.27
2018-06-15T08:16:54.577Z,8.97
2018-06-15T08:19:23.333Z,10.30
2018-06-15T08:21:52.489Z,11.07
2018-06-15T08:24:21.341Z,6.10
2018-06-15T08:26:50.122Z,11.80
2018-06-15T08:29:18.652Z,7.57
2018-06-15T08:31:47.341Z,8.00
2018-06-15T08:34:16.114Z,5.80
2018-06-15T08:36:44.881Z,8.33
2018-06-15T08:39:13.656Z,8.57
2018-06-15T08:41:42.308Z,7.90
2018-06-15T08:44:11.072Z,9.83
2018-06-15T08:46:39.830Z,6.27
2018-06-15T08:49:08.609Z,11.17
2018-06-15T08:51:37.381Z,8.60
2018-06-15T08:54:06.173Z,7.63
2018-06-15T08:56:34.756Z,7.00
2018-06-15T08:59:03.453Z,7.27
2018-06-15T09:01:32.030Z,8.93
2018-06-15T09:04:00.709Z,8.20
2018-06-15T09:06:29.486Z,10.60
2018-06-15T09:08:58.261Z,6.00
2018-06-15T09:11:27.038Z,8.20
2018-06-15T09:13:55.805Z,7.47
2018-06-15T09:16:24.561Z,8.80
2018-06-15T09:18:53.152Z,6.27
2018-06-15T09:21:21.829Z,14.70
2018-06-15T09:23:50.383Z,10.73
2018-06-15T09:26:19.058Z,7.87
2018-06-15T09:28:47.829Z,5.47
2018-06-15T09:31:16.582Z,7.30
2018-06-15T09:33:45.362Z,7.57
2018-06-15T09:36:13.936Z,4.53
2018-06-15T09:38:42.433Z,5.97
2018-06-15T09:41:11.105Z,5.57
2018-06-15T09:43:39.886Z,6.97
2018-06-15T09:46:08.650Z,9.03
2018-06-15T09:48:41.577Z,8.57
2018-06-15T09:51:10.473Z,8.43
2018-06-15T09:53:39.321Z,7.80
2018-06-15T09:56:08.077Z,8.43
2018-06-15T09:58:36.886Z,7.37
2018-06-15T10:01:08.378Z,7.47
2018-06-15T10:03:38.101Z,6.73
2018-06-15T10:06:06.635Z,6.37
2018-06-15T10:08:35.881Z,8.77
2018-06-15T10:11:04.816Z,7.97
2018-06-15T10:13:33.493Z,6.30
2018-06-15T10:16:02.491Z,4.03
2018-06-15T10:18:31.246Z,7.83
2018-06-15T10:21:00.000Z,6.83
2018-06-15T10:23:28.773Z,9.97
2018-06-15T10:25:57.540Z,9.17
2018-06-15T10:28:26.309Z,10.90
2018-06-15T10:30:55.173Z,7.70
2018-06-15T10:33:23.775Z,5.83
2018-06-15T10:35:52.585Z,5.70
2018-06-15T10:38:21.327Z,6.70
2018-06-15T10:40:50.268Z,5.70
2018-06-15T10:43:19.029Z,7.30
2018-06-15T10:45:47.926Z,7.83
2018-06-15T10:48:16.693Z,10.20
2018-06-15T10:50:45.249Z,8.40
2018-06-15T10:53:13.927Z,7.93
2018-06-15T10:55:42.705Z,6.57
2018-06-15T10:58:11.446Z,7.03
2018-06-15T11:00:40.213Z,7.50
2018-06-15T11:03:09.006Z,4.13
2018-06-15T11:05:37.768Z,5.97
2018-06-15T11:08:06.539Z,5.17
2018-06-15T11:10:35.325Z,4.73
2018-06-15T11:13:04.145Z,6.97
2018-06-15T11:15:33.176Z,7.97
2018-06-15T11:18:01.918Z,10.17
2018-06-15T11:20:30.733Z,7.60
2018-06-15T11:22:59.255Z,11.10
2018-06-15T11:25:27.951Z,8.43
2018-06-15T11:27:57.098Z,6.73
2018-06-15T11:30:26.045Z,7.43
2018-06-15T11:32:54.773Z,5.77
2018-06-15T11:35:23.552Z,6.50
2018-06-15T11:37:52.321Z,5.70
2018-06-15T11:40:21.362Z,7.47
2018-06-15T11:42:50.181Z,8.63
2018-06-15T11:45:18.879Z,10.17
2018-06-15T11:47:47.680Z,7.97
2018-06-15T11:50:16.469Z,8.07
2018-06-15T11:52:45.216Z,10.23
2018-06-15T11:55:13.981Z,8.70
2018-06-15T11:57:42.549Z,6.50
2018-06-15T12:00:11.290Z,6.47
2018-06-15T12:02:40.166Z,6.93
2018-06-15T12:05:08.930Z,7.27
2018-06-15T12:07:37.532Z,6.97
2018-06-15T12:10:06.402Z,7.87
2018-06-15T12:12:34.945Z,5.50
2018-06-15T12:15:03.634Z,5.10
2018-06-15T12:17:32.405Z,5.10
2018-06-15T12:20:01.257Z,7.77
2018-06-15T12:22:29.840Z,7.27
2018-06-15T12:24:58.529Z,8.63
2018-06-15T12:27:27.104Z,7.43
2018-06-15T12:29:55.749Z,7.57
2018-06-15T12:32:24.431Z,9.30
2018-06-15T12:34:53.257Z,8.37
2018-06-15T12:37:22.018Z,7.17
2018-06-15T12:39:50.961Z,6.03
2018-06-15T12:42:19.741Z,5.10
2018-06-15T12:44:48.312Z,6.70
2018-06-15T12:47:16.801Z,4.30
2018-06-15T12:49:45.481Z,4.10
2018-06-15T12:52:14.246Z,6.33
2018-06-15T12:54:43.003Z,4.97
2018-06-15T12:57:11.766Z,5.53
2018-06-15T12:59:40.547Z,5.40
2018-06-15T13:02:09.433Z,7.57
2018-06-15T13:04:37.995Z,7.47
2018-06-15T13:07:06.449Z,5.47
2018-06-15T13:09:35.117Z,5.60
2018-06-15T13:12:03.900Z,6.53
2018-06-15T13:14:32.635Z,7.57
2018-06-15T13:17:01.394Z,5.77
2018-06-15T13:19:30.127Z,5.30
2018-06-15T13:21:58.881Z,9.77
2018-06-15T13:24:32.210Z,6.53
2018-06-15T13:27:00.795Z,4.63
2018-06-15T13:29:29.277Z,6.67
2018-06-15T13:31:57.801Z,7.80
2018-06-15T13:34:26.539Z,4.60
2018-06-15T13:36:55.458Z,8.33
2018-06-15T13:39:24.219Z,7.03
2018-06-15T13:41:52.997Z,7.90
2018-06-15T13:44:21.801Z,9.30
2018-06-15T13:46:50.557Z,7.67
2018-06-15T13:49:19.225Z,7.13
2018-06-15T13:51:48.006Z,8.03
2018-06-15T13:54:16.753Z,6.40
2018-06-15T13:56:45.364Z,8.57
2018-06-15T13:59:14.043Z,5.73
2018-06-15T14:01:42.803Z,6.37
2018-06-15T14:04:11.567Z,6.93
2018-06-15T14:06:40.329Z,6.17
2018-06-15T14:09:09.841Z,6.20
2018-06-15T14:11:38.929Z,7.50
2018-06-15T14:14:07.714Z,7.27
2018-06-15T14:16:36.469Z,6.67
2018-06-15T14:19:05.238Z,6.53
2018-06-15T14:21:33.981Z,6.30
2018-06-15T14:24:02.730Z,7.17
2018-06-15T14:26:31.498Z,6.93
2018-06-15T14:28:59.988Z,4.47
2018-06-15T14:31:28.943Z,8.27
2018-06-15T14:33:57.906Z,7.13
2018-06-15T14:36:26.857Z,7.27
2018-06-15T14:38:55.730Z,6.03
2018-06-15T14:41:24.639Z,6.83
2018-06-15T14:43:53.513Z,7.90
2018-06-15T14:46:22.261Z,6.20
2018-06-15T14:48:51.015Z,6.63
2018-06-15T14:51:19.778Z,6.80
2018-06-15T14:53:48.562Z,6.27
2018-06-15T14:56:17.453Z,6.20
2018-06-15T14:58:46.240Z,5.43
2018-06-15T15:01:15.005Z,7.97
2018-06-15T15:03:43.737Z,9.40
2018-06-15T15:06:12.525Z,10.07
2018-06-15T15:08:41.267Z,7.90
2018-06-15T15:11:10.104Z,8.10
2018-06-15T15:13:38.869Z,5.60
2018-06-15T15:16:07.741Z,6.03
2018-06-15T15:18:36.496Z,8.67
2018-06-15T15:21:05.253Z,12.93
2018-06-15T15:23:34.054Z,11.00
2018-06-15T15:26:02.814Z,7.13
2018-06-15T15:28:31.584Z,7.07
2018-06-15T15:31:00.365Z,7.80
2018-06-15T15:33:29.144Z,6.63
2018-06-15T15:35:58.006Z,10.50
2018-06-15T15:38:26.567Z,8.47
2018-06-15T15:40:55.237Z,6.73
2018-06-15T15:43:24.010Z,7.87
2018-06-15T15:45:52.771Z,8.03
2018-06-15T15:48:21.634Z,11.30
2018-06-15T15:50:50.385Z,13.67
2018-06-15T15:53:19.156Z,9.17
2018-06-15T15:55:47.909Z,6.53
2018-06-15T15:58:16.457Z,8.97
2018-06-15T16:00:45.117Z,9.53
2018-06-15T16:03:13.880Z,8.90
2018-06-15T16:05:42.641Z,9.97
2018-06-15T16:08:11.410Z,8.63
2018-06-15T16:10:40.253Z,8.57
2018-06-15T16:13:09.013Z,5.87
2018-06-15T16:15:37.553Z,9.73
2018-06-15T16:18:06.253Z,10.07
2018-06-15T16:20:35.090Z,7.77
2018-06-15T16:23:03.830Z,10.23
2018-06-15T16:25:32.601Z,6.67
2018-06-15T16:28:01.356Z,8.53
2018-06-15T16:30:30.106Z,8.23
2018-06-15T16:32:58.868Z,9.17
2018-06-15T16:35:27.665Z,9.40
2018-06-15T16:37:56.445Z,7.77
2018-06-15T16:40:25.202Z,7.47
2018-06-15T16:42:53.961Z,8.50
2018-06-15T16:45:22.733Z,8.53
2018-06-15T16:47:51.486Z,8.50
2018-06-15T16:50:20.241Z,10.57
2018-06-15T16:52:48.997Z,6.63
2018-06-15T16:55:17.757Z,10.47
2018-06-15T16:57:46.619Z,13.87
2018-06-15T17:00:15.402Z,8.07
2018-06-15T17:02:44.153Z,9.13
2018-06-15T17:05:12.925Z,9.00
2018-06-15T17:07:41.680Z,8.83
2018-06-15T17:10:10.417Z,9.67
2018-06-15T17:12:39.202Z,8.90
2018-06-15T17:15:07.993Z,9.30
2018-06-15T17:17:36.814Z,9.47
2018-06-15T17:20:05.586Z,9.03
2018-06-15T17:22:34.364Z,8.67
2018-06-15T17:25:03.139Z,10.10
2018-06-15T17:27:32.163Z,8.70
2018-06-15T17:30:00.942Z,7.57
2018-06-15T17:32:29.906Z,6.03
2018-06-15T17:34:58.698Z,8.70
2018-06-15T17:37:27.663Z,7.53
2018-06-15T17:39:56.209Z,10.93
2018-06-15T17:42:24.858Z,9.67
2018-06-15T17:44:53.625Z,6.33
2018-06-15T17:47:22.406Z,10.70
2018-06-15T17:49:51.161Z,8.23
2018-06-15T17:52:19.736Z,6.90
2018-06-15T17:54:48.413Z,8.33
2018-06-15T17:57:17.182Z,10.07
2018-06-15T17:59:45.972Z,7.47
2018-06-15T18:02:14.713Z,9.03
2018-06-15T18:04:43.469Z,8.03
2018-06-15T18:07:12.238Z,6.67
2018-06-15T18:09:40.996Z,9.43
2018-06-15T18:12:09.748Z,6.90
2018-06-15T18:14:38.502Z,8.37
2018-06-15T18:17:07.113Z,7.10
2018-06-15T18:19:35.648Z,6.10
2018-06-15T18:22:04.325Z,7.33
2018-06-15T18:24:33.313Z,9.40
2018-06-15T18:27:02.065Z,7.87
2018-06-15T18:29:30.656Z,7.17
2018-06-15T18:31:59.305Z,5.63
2018-06-15T18:34:28.185Z,6.47
2018-06-15T18:36:56.973Z,8.87
2018-06-15T18:39:25.725Z,6.03
2018-06-15T18:41:54.530Z,9.43
2018-06-15T18:44:23.270Z,5.73
2018-06-15T18:46:51.812Z,7.30
2018-06-15T18:49:20.510Z,8.07
2018-06-15T18:51:49.257Z,6.90
2018-06-15T18:54:18.015Z,8.37
2018-06-15T18:56:46.953Z,7.90
2018-06-15T18:59:15.714Z,9.60
2018-06-15T19:01:44.249Z,12.10
2018-06-15T19:04:12.936Z,10.67
2018-06-15T19:06:43.285Z,11.50
2018-06-15T19:09:12.405Z,10.37
2018-06-15T19:11:40.967Z,11.30
2018-06-15T19:14:09.460Z,9.93
2018-06-15T19:16:38.272Z,9.63
2018-06-15T19:19:06.915Z,10.63
2018-06-15T19:21:36.221Z,10.53
2018-06-15T19:24:05.632Z,11.73
2018-06-15T19:26:34.509Z,9.77
2018-06-15T19:29:03.247Z,8.47
2018-06-15T19:31:31.957Z,7.13
2018-06-15T19:34:00.754Z,8.33
2018-06-15T19:36:29.520Z,8.27
2018-06-15T19:38:58.319Z,8.60
2018-06-15T19:41:27.153Z,10.73
2018-06-15T19:43:55.732Z,8.10
2018-06-15T19:46:24.225Z,6.50
2018-06-15T19:48:52.912Z,5.93
2018-06-15T19:51:21.529Z,7.73
2018-06-15T19:53:50.157Z,9.47
2018-06-15T19:56:18.933Z,6.57
2018-06-15T19:58:47.701Z,8.00
2018-06-15T20:01:16.445Z,7.27
2018-06-15T20:03:45.220Z,9.13
2018-06-15T20:06:13.986Z,9.33
2018-06-15T20:08:42.901Z,8.33
2018-06-15T20:11:11.689Z,7.13
2018-06-15T20:13:40.601Z,6.50
2018-06-15T20:16:09.369Z,7.50
2018-06-15T20:18:38.189Z,5.83
2018-06-15T20:21:07.043Z,8.40
2018-06-15T20:23:35.966Z,7.50
2018-06-15T20:26:05.133Z,8.03
2018-06-15T20:28:33.887Z,5.97
2018-06-15T20:31:02.751Z,9.03
2018-06-15T20:33:31.614Z,9.23
2018-06-15T20:36:00.381Z,7.03
2018-06-15T20:38:29.170Z,6.70
2018-06-15T20:40:57.940Z,9.53
2018-06-15T20:43:26.836Z,5.90
2018-06-15T20:45:55.709Z,6.43
2018-06-15T20:48:24.740Z,8.37
2018-06-15T20:50:53.529Z,6.20
2018-06-15T20:53:22.299Z,5.90
2018-06-15T20:55:51.302Z,6.70
2018-06-15T20:58:20.059Z,7.70
2018-06-15T21:00:48.885Z,6.80
2018-06-15T21:03:17.681Z,7.63
2018-06-15T21:05:46.485Z,9.87
2018-06-15T21:08:15.069Z,9.30
2018-06-15T21:10:43.729Z,8.10
2018-06-15T21:13:12.501Z,7.23
2018-06-15T21:15:41.265Z,9.40
2018-06-15T21:18:10.053Z,6.63
2018-06-15T21:20:38.825Z,6.93
2018-06-15T21:23:07.601Z,7.90
2018-06-15T21:25:36.379Z,7.70
2018-06-15T21:28:04.956Z,8.47
2018-06-15T21:30:33.412Z,10.97
2018-06-15T21:33:02.070Z,9.03
2018-06-15T21:35:30.838Z,8.83
2018-06-15T21:37:59.747Z,6.87
2018-06-15T21:40:28.506Z,6.60
2018-06-15T21:42:57.268Z,6.63
2018-06-15T21:45:26.026Z,8.70
2018-06-15T21:47:54.778Z,8.57
2018-06-15T21:50:23.559Z,6.03
2018-06-15T21:52:52.301Z,14.07
2018-06-15T21:55:21.089Z,25.67
2018-06-15T21:57:49.925Z,24.50
2018-06-15T22:00:18.686Z,24.97
2018-06-15T22:02:47.458Z,28.50
2018-06-15T22:05:16.262Z,25.20
2018-06-15T22:07:45.042Z,32.83
2018-06-15T22:10:13.855Z,30.33
2018-06-15T22:12:42.475Z,25.17
2018-06-15T22:15:11.165Z,18.20
2018-06-15T22:17:39.943Z,12.17
2018-06-15T22:20:08.695Z,12.67
2018-06-15T22:22:37.490Z,9.90
2018-06-15T22:25:06.074Z,7.70
2018-06-15T22:27:34.762Z,8.77
2018-06-15T22:30:03.309Z,8.33
2018-06-15T22:32:31.977Z,11.13
2018-06-15T22:35:00.724Z,6.93
2018-06-15T22:37:29.497Z,8.43
2018-06-15T22:39:58.257Z,8.47
2018-06-15T22:42:27.014Z,8.00
2018-06-15T22:44:55.753Z,7.67
2018-06-15T22:47:24.510Z,6.30
2018-06-15T22:49:53.267Z,8.33
2018-06-15T22:52:22.031Z,7.57
2018-06-15T22:54:50.620Z,8.87
2018-06-15T22:57:19.310Z,8.37
2018-06-15T22:59:47.864Z,5.50
2018-06-15T23:02:16.538Z,7.53
2018-06-15T23:04:45.309Z,8.87
2018-06-15T23:07:14.086Z,8.20
2018-06-15T23:09:42.893Z,7.00
2018-06-15T23:12:11.669Z,7.53
2018-06-15T23:14:40.479Z,6.97
2018-06-15T23:17:09.186Z,6.60
2018-06-15T23:19:37.938Z,7.53
2018-06-15T23:22:06.733Z,8.67
2018-06-15T23:24:35.493Z,9.43
2018-06-15T23:27:04.506Z,5.03
2018-06-15T23:29:33.249Z,8.00
2018-06-15T23:32:01.804Z,8.13
2018-06-15T23:34:30.481Z,3.90
2018-06-15T23:36:59.269Z,8.13
2018-06-15T23:39:28.035Z,4.97
2018-06-15T23:41:56.825Z,4.87
2018-06-15T23:44:25.577Z,6.97
2018-06-15T23:46:54.111Z,9.17
2018-06-15T23:49:22.817Z,8.17
2018-06-15T23:51:51.599Z,4.73
2018-06-15T23:54:20.356Z,5.73
2018-06-15T23:56:49.101Z,8.80
2018-06-15T23:59:17.660Z,6.37
